createdAt,value
2019-03-30T00:01:49.368Z,16.17
2019-03-30T00:04:17.785Z,16.97
2019-03-30T00:06:46.165Z,16.87
2019-03-30T00:09:14.589Z,15.70
2019-03-30T00:11:42.977Z,16.83
2019-03-30T00:14:11.426Z,16.20
2019-03-30T00:16:59.217Z,16.63
2019-03-30T00:19:34.915Z,18.10
2019-03-30T00:21:57.748Z,18.57
2019-03-30T00:24:26.167Z,17.53
2019-03-30T00:26:54.583Z,17.80
2019-03-30T00:29:23.012Z,18.23
2019-03-30T00:31:51.411Z,18.97
2019-03-30T00:34:19.821Z,17.20
2019-03-30T00:36:48.233Z,18.30
2019-03-30T00:39:16.671Z,17.87
2019-03-30T00:41:45.066Z,19.80
2019-03-30T00:44:13.568Z,20.33
2019-03-30T00:46:41.950Z,18.77
2019-03-30T00:49:10.363Z,18.93
2019-03-30T00:51:38.758Z,18.47
2019-03-30T00:54:07.164Z,19.23
2019-03-30T00:56:35.841Z,18.63
2019-03-30T00:59:04.334Z,18.17
2019-03-30T01:01:32.731Z,20.40
2019-03-30T01:04:01.142Z,20.60
2019-03-30T01:06:29.562Z,19.30
2019-03-30T01:08:57.980Z,18.40
2019-03-30T01:11:26.388Z,19.40
2019-03-30T01:13:54.811Z,18.37
2019-03-30T01:16:23.220Z,20.53
2019-03-30T01:18:51.655Z,18.47
2019-03-30T01:21:20.064Z,17.90
2019-03-30T01:23:48.482Z,17.80
2019-03-30T01:26:16.899Z,18.70
2019-03-30T01:28:45.297Z,17.83
2019-03-30T01:31:13.706Z,19.70
2019-03-30T01:33:42.124Z,18.83
2019-03-30T01:36:10.539Z,16.80
2019-03-30T01:38:38.945Z,20.13
2019-03-30T01:41:07.357Z,19.23
2019-03-30T01:43:35.775Z,19.53
2019-03-30T01:46:04.203Z,21.87
2019-03-30T01:48:32.608Z,19.17
2019-03-30T01:51:01.023Z,21.30
2019-03-30T01:53:29.417Z,18.77
2019-03-30T01:55:57.838Z,20.40
2019-03-30T01:58:26.238Z,21.23
2019-03-30T02:00:54.641Z,18.83
2019-03-30T02:03:23.058Z,19.47
2019-03-30T02:05:51.471Z,21.30
2019-03-30T02:08:19.871Z,21.43
2019-03-30T02:10:48.551Z,20.20
2019-03-30T02:13:16.951Z,19.50
2019-03-30T02:15:45.546Z,20.97
2019-03-30T02:18:13.976Z,21.00
2019-03-30T02:20:47.424Z,20.13
2019-03-30T02:23:15.828Z,19.50
2019-03-30T02:25:44.309Z,21.00
2019-03-30T02:28:12.781Z,19.53
2019-03-30T02:30:41.191Z,20.40
2019-03-30T02:33:09.587Z,19.87
2019-03-30T02:35:38.030Z,19.90
2019-03-30T02:38:06.431Z,20.80
2019-03-30T02:40:34.902Z,20.13
2019-03-30T02:43:03.309Z,19.13
2019-03-30T02:45:31.735Z,19.20
2019-03-30T02:48:00.121Z,20.50
2019-03-30T02:50:28.664Z,23.30
2019-03-30T02:52:57.106Z,20.73
2019-03-30T02:55:25.622Z,20.83
2019-03-30T02:57:54.946Z,21.07
2019-03-30T03:00:23.541Z,22.07
2019-03-30T03:02:52.046Z,22.00
2019-03-30T03:05:39.918Z,22.00
2019-03-30T03:08:08.360Z,22.30
2019-03-30T03:10:36.839Z,21.20
2019-03-30T03:13:05.237Z,23.20
2019-03-30T03:15:33.729Z,22.97
2019-03-30T03:18:02.140Z,22.67
2019-03-30T03:20:30.579Z,23.20
2019-03-30T03:22:58.979Z,22.13
2019-03-30T03:25:27.382Z,21.80
2019-03-30T03:27:56.049Z,21.53
2019-03-30T03:30:24.446Z,22.23
2019-03-30T03:32:52.871Z,22.60
2019-03-30T03:35:21.285Z,24.47
2019-03-30T03:37:49.678Z,20.67
2019-03-30T03:40:18.093Z,24.07
2019-03-30T03:42:46.665Z,24.50
2019-03-30T03:45:15.156Z,20.87
2019-03-30T03:47:43.560Z,22.57
2019-03-30T03:50:15.070Z,22.83
2019-03-30T03:52:43.693Z,23.27
2019-03-30T03:55:12.108Z,23.60
2019-03-30T03:57:42.609Z,22.03
2019-03-30T04:00:11.572Z,23.07
2019-03-30T04:02:39.987Z,22.23
2019-03-30T04:05:10.009Z,21.90
2019-03-30T04:07:40.233Z,21.67
2019-03-30T04:10:09.074Z,23.10
2019-03-30T04:12:37.862Z,23.60
2019-03-30T04:15:08.106Z,22.97
2019-03-30T04:17:36.871Z,21.23
2019-03-30T04:20:06.919Z,20.80
2019-03-30T04:22:35.327Z,21.20
2019-03-30T04:25:05.477Z,20.57
2019-03-30T04:27:33.877Z,23.17
2019-03-30T04:30:02.281Z,20.80
2019-03-30T04:32:30.700Z,21.20
2019-03-30T04:34:59.108Z,20.20
2019-03-30T04:37:27.520Z,21.43
2019-03-30T04:39:55.939Z,21.20
2019-03-30T04:42:24.368Z,22.77
2019-03-30T04:44:52.775Z,19.53
2019-03-30T04:47:21.191Z,19.60
2019-03-30T04:49:49.595Z,18.70
2019-03-30T04:52:19.004Z,19.27
2019-03-30T04:54:47.393Z,22.67
2019-03-30T04:57:15.806Z,18.60
2019-03-30T04:59:44.210Z,20.47
2019-03-30T05:02:12.641Z,21.07
2019-03-30T05:04:41.026Z,19.40
2019-03-30T05:07:09.449Z,19.47
2019-03-30T05:09:57.189Z,20.17
2019-03-30T05:12:25.598Z,18.60
2019-03-30T05:14:53.999Z,19.53
2019-03-30T05:17:22.398Z,19.70
2019-03-30T05:19:50.798Z,21.50
2019-03-30T05:22:19.201Z,19.97
2019-03-30T05:24:47.607Z,20.40
2019-03-30T05:27:16.017Z,20.60
2019-03-30T05:29:44.427Z,18.30
2019-03-30T05:32:12.830Z,19.23
2019-03-30T05:34:41.243Z,18.50
2019-03-30T05:37:09.649Z,19.23
2019-03-30T05:39:38.045Z,18.60
2019-03-30T05:42:06.477Z,20.53
2019-03-30T05:44:34.877Z,19.33
2019-03-30T05:47:03.300Z,19.90
2019-03-30T05:49:31.698Z,20.83
2019-03-30T05:52:00.107Z,21.60
2019-03-30T05:54:28.496Z,19.07
2019-03-30T05:56:56.931Z,18.60
2019-03-30T05:59:25.334Z,18.63
2019-03-30T06:01:53.734Z,20.60
2019-03-30T06:04:22.129Z,22.53
2019-03-30T06:06:50.551Z,21.73
2019-03-30T06:09:18.945Z,19.20
2019-03-30T06:11:47.362Z,21.63
2019-03-30T06:14:15.762Z,19.20
2019-03-30T06:16:44.194Z,20.57
2019-03-30T06:19:12.586Z,21.53
2019-03-30T06:21:41.019Z,20.50
2019-03-30T06:24:09.415Z,19.90
2019-03-30T06:26:37.821Z,19.70
2019-03-30T06:29:06.217Z,19.30
2019-03-30T06:31:34.627Z,20.27
2019-03-30T06:34:03.026Z,19.77
2019-03-30T06:36:32.401Z,19.70
2019-03-30T06:39:00.801Z,20.83
2019-03-30T06:41:29.221Z,19.13
2019-03-30T06:43:57.628Z,19.27
2019-03-30T06:46:45.445Z,19.93
2019-03-30T06:49:13.837Z,22.03
2019-03-30T06:51:42.250Z,20.67
2019-03-30T06:54:10.668Z,20.13
2019-03-30T06:56:39.077Z,20.63
2019-03-30T06:59:07.476Z,20.70
2019-03-30T07:01:35.899Z,21.77
2019-03-30T07:04:04.309Z,21.93
2019-03-30T07:06:32.856Z,20.40
2019-03-30T07:09:04.471Z,21.57
2019-03-30T07:11:35.953Z,20.73
2019-03-30T07:14:04.635Z,20.80
2019-03-30T07:16:36.265Z,21.03
2019-03-30T07:19:05.096Z,21.57
2019-03-30T07:21:33.520Z,18.87
2019-03-30T07:24:01.922Z,23.87
2019-03-30T07:26:30.336Z,21.93
2019-03-30T07:28:58.731Z,20.77
2019-03-30T07:31:27.134Z,20.07
2019-03-30T07:33:55.537Z,21.30
2019-03-30T07:36:23.961Z,22.00
2019-03-30T07:38:52.374Z,19.87
2019-03-30T07:41:20.780Z,21.97
2019-03-30T07:43:49.194Z,18.90
2019-03-30T07:46:19.562Z,24.13
2019-03-30T07:48:47.720Z,21.80
2019-03-30T07:51:16.453Z,21.37
2019-03-30T07:53:45.169Z,26.77
2019-03-30T07:56:13.743Z,22.27
2019-03-30T07:58:43.242Z,22.07
2019-03-30T08:01:11.651Z,19.50
2019-03-30T08:03:41.264Z,20.43
2019-03-30T08:06:09.690Z,19.87
2019-03-30T08:08:38.099Z,18.70
2019-03-30T08:11:06.499Z,19.73
2019-03-30T08:13:34.918Z,20.40
2019-03-30T08:16:03.578Z,19.83
2019-03-30T08:18:32.019Z,19.90
2019-03-30T08:21:00.406Z,21.07
2019-03-30T08:23:39.823Z,20.80
2019-03-30T08:25:58.944Z,20.10
2019-03-30T08:28:27.378Z,20.30
2019-03-30T08:30:55.783Z,20.47
2019-03-30T08:33:24.441Z,19.90
2019-03-30T08:35:52.846Z,19.60
2019-03-30T08:38:21.274Z,20.07
2019-03-30T08:40:49.692Z,18.83
2019-03-30T08:43:18.201Z,19.10
2019-03-30T08:45:48.962Z,19.27
2019-03-30T08:48:16.797Z,19.20
2019-03-30T08:50:45.190Z,18.80
2019-03-30T08:53:13.648Z,18.47
2019-03-30T08:55:42.073Z,19.83
2019-03-30T08:58:10.575Z,19.27
2019-03-30T09:00:42.582Z,17.77
2019-03-30T09:03:11.447Z,18.33
2019-03-30T09:05:40.134Z,19.30
2019-03-30T09:08:08.619Z,19.03
2019-03-30T09:10:42.025Z,19.67
2019-03-30T09:13:10.430Z,18.20
2019-03-30T09:15:38.847Z,19.97
2019-03-30T09:18:07.347Z,16.60
2019-03-30T09:20:35.735Z,18.50
2019-03-30T09:23:04.150Z,21.10
2019-03-30T09:25:32.559Z,17.07
2019-03-30T09:28:00.966Z,16.40
2019-03-30T09:30:29.422Z,17.50
2019-03-30T09:32:57.827Z,17.47
2019-03-30T09:35:26.269Z,17.03
2019-03-30T09:37:54.654Z,19.60
2019-03-30T09:40:42.407Z,19.00
2019-03-30T09:43:10.802Z,17.80
2019-03-30T09:45:39.223Z,17.90
2019-03-30T09:48:07.638Z,20.00
2019-03-30T09:50:36.341Z,19.07
2019-03-30T09:53:04.745Z,17.93
2019-03-30T09:55:33.408Z,19.37
2019-03-30T09:58:02.121Z,16.80
2019-03-30T10:00:30.569Z,20.40
2019-03-30T10:02:58.978Z,19.43
2019-03-30T10:05:27.384Z,22.60
2019-03-30T10:07:55.784Z,19.53
2019-03-30T10:10:24.209Z,19.30
2019-03-30T10:12:52.717Z,19.03
2019-03-30T10:15:21.127Z,20.07
2019-03-30T10:17:49.544Z,19.80
2019-03-30T10:20:17.949Z,20.10
2019-03-30T10:22:46.355Z,25.47
2019-03-30T10:25:34.103Z,18.40
2019-03-30T10:28:02.519Z,22.50
2019-03-30T10:30:30.931Z,20.63
2019-03-30T10:32:59.349Z,18.57
2019-03-30T10:35:27.759Z,19.20
2019-03-30T10:37:56.188Z,19.67
2019-03-30T10:40:24.587Z,21.13
2019-03-30T10:42:53.002Z,17.63
2019-03-30T10:45:21.434Z,18.50
2019-03-30T10:47:49.842Z,17.90
2019-03-30T10:50:18.382Z,17.23
2019-03-30T10:52:46.786Z,25.57
2019-03-30T10:55:15.206Z,28.20
2019-03-30T10:57:43.711Z,16.30
2019-03-30T11:00:14.399Z,15.57
2019-03-30T11:02:42.813Z,19.80
2019-03-30T11:05:11.280Z,20.23
2019-03-30T11:07:39.714Z,15.70
2019-03-30T11:10:08.984Z,18.97
2019-03-30T11:12:37.393Z,12.40
2019-03-30T11:15:06.861Z,12.93
2019-03-30T11:17:35.336Z,14.47
2019-03-30T11:20:04.227Z,12.20
2019-03-30T11:22:32.631Z,13.00
2019-03-30T11:25:07.976Z,13.50
2019-03-30T11:27:31.236Z,13.43
2019-03-30T11:30:01.594Z,14.30
2019-03-30T11:32:30.030Z,13.60
2019-03-30T11:34:58.477Z,11.97
2019-03-30T11:37:26.942Z,13.40
2019-03-30T11:39:55.341Z,13.00
2019-03-30T11:42:23.778Z,13.43
2019-03-30T11:44:54.033Z,11.97
2019-03-30T11:47:22.477Z,12.20
2019-03-30T11:49:50.897Z,12.57
2019-03-30T11:52:19.323Z,12.30
2019-03-30T11:54:47.738Z,13.00
2019-03-30T11:57:16.165Z,13.40
2019-03-30T11:59:44.556Z,14.13
2019-03-30T12:02:27.027Z,10.50
2019-03-30T12:04:43.104Z,11.80
2019-03-30T12:07:11.518Z,10.23
2019-03-30T12:09:39.925Z,13.80
2019-03-30T12:12:08.386Z,13.17
2019-03-30T12:14:36.826Z,11.30
2019-03-30T12:17:05.313Z,9.30
2019-03-30T12:19:33.755Z,9.07
2019-03-30T12:22:02.150Z,8.43
2019-03-30T12:24:30.564Z,9.47
2019-03-30T12:26:59.055Z,9.80
2019-03-30T12:29:27.463Z,9.33
2019-03-30T12:31:55.858Z,9.50
2019-03-30T12:34:24.270Z,10.57
2019-03-30T12:36:55.645Z,10.60
2019-03-30T12:39:22.811Z,10.23
2019-03-30T12:41:51.211Z,10.10
2019-03-30T12:44:19.633Z,9.77
2019-03-30T12:46:48.071Z,8.83
2019-03-30T12:49:16.495Z,10.67
2019-03-30T12:51:44.900Z,10.20
2019-03-30T12:54:13.377Z,10.50
2019-03-30T12:56:41.781Z,9.90
2019-03-30T12:59:10.233Z,10.03
2019-03-30T13:01:38.758Z,10.30
2019-03-30T13:04:07.203Z,10.97
2019-03-30T13:06:35.624Z,9.97
2019-03-30T13:09:06.075Z,10.33
2019-03-30T13:11:34.497Z,11.30
2019-03-30T13:14:02.983Z,9.40
2019-03-30T13:16:31.387Z,10.50
2019-03-30T13:19:00.785Z,9.53
2019-03-30T13:21:32.155Z,10.87
2019-03-30T13:23:59.402Z,8.93
2019-03-30T13:26:27.819Z,9.23
2019-03-30T13:28:56.227Z,8.40
2019-03-30T13:31:24.630Z,8.10
2019-03-30T13:33:53.057Z,8.90
2019-03-30T13:36:23.105Z,8.30
2019-03-30T13:38:51.504Z,8.93
2019-03-30T13:41:19.950Z,8.87
2019-03-30T13:43:48.356Z,8.93
2019-03-30T13:46:16.771Z,7.87
2019-03-30T13:48:45.180Z,8.27
2019-03-30T13:51:13.594Z,9.73
2019-03-30T13:53:42.005Z,8.40
2019-03-30T13:56:17.078Z,8.80
2019-03-30T13:58:40.537Z,9.27
2019-03-30T14:01:08.954Z,9.00
2019-03-30T14:03:37.364Z,8.07
2019-03-30T14:06:05.843Z,8.73
2019-03-30T14:08:34.257Z,8.67
2019-03-30T14:11:02.666Z,7.77
2019-03-30T14:13:38.009Z,9.50
2019-03-30T14:16:06.439Z,9.30
2019-03-30T14:18:34.844Z,8.70
2019-03-30T14:21:03.270Z,7.37
2019-03-30T14:23:33.575Z,7.03
2019-03-30T14:26:02.003Z,8.20
2019-03-30T14:28:30.404Z,8.30
2019-03-30T14:30:58.892Z,9.13
2019-03-30T14:33:27.304Z,9.13
2019-03-30T14:35:55.735Z,9.20
2019-03-30T14:38:24.146Z,7.93
2019-03-30T14:40:52.559Z,7.83
2019-03-30T14:43:20.957Z,8.47
2019-03-30T14:45:49.382Z,9.13
2019-03-30T14:48:17.794Z,9.10
2019-03-30T14:50:46.301Z,7.93
2019-03-30T14:53:14.781Z,8.30
2019-03-30T14:55:43.238Z,9.03
2019-03-30T14:58:11.713Z,7.97
2019-03-30T15:00:40.202Z,8.40
2019-03-30T15:03:08.731Z,8.50
2019-03-30T15:05:37.130Z,7.93
2019-03-30T15:08:05.548Z,8.27
2019-03-30T15:10:33.942Z,8.40
2019-03-30T15:13:03.300Z,8.33
2019-03-30T15:15:31.714Z,8.20
2019-03-30T15:18:00.128Z,8.70
2019-03-30T15:20:28.538Z,8.27
2019-03-30T15:22:56.943Z,9.70
2019-03-30T15:25:26.403Z,9.20
2019-03-30T15:27:54.795Z,8.90
2019-03-30T15:30:23.215Z,8.80
2019-03-30T15:32:51.619Z,8.90
2019-03-30T15:35:22.007Z,10.47
2019-03-30T15:37:50.412Z,10.20
2019-03-30T15:40:18.967Z,9.37
2019-03-30T15:42:47.381Z,11.47
2019-03-30T15:45:15.801Z,11.20
2019-03-30T15:47:44.218Z,10.20
2019-03-30T15:50:13.160Z,10.10
2019-03-30T15:52:41.640Z,10.40
2019-03-30T15:55:10.128Z,10.67
2019-03-30T15:57:38.553Z,10.07
2019-03-30T16:00:10.026Z,10.40
2019-03-30T16:02:38.530Z,11.10
2019-03-30T16:05:07.576Z,10.40
2019-03-30T16:07:36.114Z,11.80
2019-03-30T16:10:05.755Z,11.37
2019-03-30T16:12:34.166Z,12.27
2019-03-30T16:15:03.619Z,11.10
2019-03-30T16:17:32.044Z,11.10
2019-03-30T16:20:00.455Z,10.37
2019-03-30T16:22:28.875Z,10.03
2019-03-30T16:24:57.282Z,11.73
2019-03-30T16:27:45.123Z,10.57
2019-03-30T16:30:13.779Z,11.23
2019-03-30T16:32:42.208Z,10.83
2019-03-30T16:35:10.612Z,10.30
2019-03-30T16:37:39.033Z,10.00
2019-03-30T16:40:07.501Z,9.63
2019-03-30T16:42:36.340Z,11.87
2019-03-30T16:45:06.645Z,11.33
2019-03-30T16:47:35.060Z,10.60
2019-03-30T16:50:05.000Z,11.87
2019-03-30T16:52:33.432Z,10.50
2019-03-30T16:55:01.839Z,11.30
2019-03-30T16:57:42.605Z,10.87
2019-03-30T17:00:01.316Z,10.60
2019-03-30T17:02:29.884Z,10.77
2019-03-30T17:04:58.330Z,12.40
2019-03-30T17:07:26.806Z,12.33
2019-03-30T17:09:55.213Z,10.90
2019-03-30T17:12:26.687Z,11.20
2019-03-30T17:14:55.156Z,10.97
2019-03-30T17:17:23.660Z,12.73
2019-03-30T17:19:52.096Z,12.10
2019-03-30T17:22:20.565Z,12.87
2019-03-30T17:24:48.979Z,11.03
2019-03-30T17:27:17.475Z,13.30
2019-03-30T17:29:45.866Z,12.43
2019-03-30T17:32:14.287Z,14.67
2019-03-30T17:34:42.848Z,14.00
2019-03-30T17:37:14.337Z,12.87
2019-03-30T17:39:41.390Z,12.67
2019-03-30T17:42:09.805Z,13.20
2019-03-30T17:44:38.300Z,13.70
2019-03-30T17:47:06.790Z,15.40
2019-03-30T17:49:35.186Z,39.57
2019-03-30T17:52:03.600Z,20.00
2019-03-30T17:54:32.038Z,17.57
2019-03-30T17:57:00.521Z,18.07
2019-03-30T17:59:29.847Z,13.63
2019-03-30T18:01:58.265Z,12.03
2019-03-30T18:04:26.670Z,20.50
2019-03-30T18:06:55.084Z,12.87
2019-03-30T18:09:23.558Z,12.30
2019-03-30T18:11:51.943Z,12.87
2019-03-30T18:14:20.350Z,11.00
2019-03-30T18:17:08.137Z,12.53
2019-03-30T18:19:36.581Z,16.67
2019-03-30T18:22:05.005Z,18.30
2019-03-30T18:24:33.414Z,16.20
2019-03-30T18:27:01.810Z,23.27
2019-03-30T18:29:30.240Z,19.03
2019-03-30T18:31:58.984Z,15.97
2019-03-30T18:34:27.932Z,27.40
2019-03-30T18:36:56.882Z,16.40
2019-03-30T18:39:25.484Z,17.47
2019-03-30T18:41:53.895Z,22.90
2019-03-30T18:44:22.482Z,27.00
2019-03-30T18:46:50.873Z,36.83
2019-03-30T18:49:19.275Z,27.53
2019-03-30T18:51:49.323Z,24.80
2019-03-30T18:54:17.807Z,31.03
2019-03-30T18:56:46.215Z,37.70
2019-03-30T18:59:14.652Z,35.97
2019-03-30T19:01:43.052Z,24.40
2019-03-30T19:04:11.467Z,28.80
2019-03-30T19:06:39.871Z,25.63
2019-03-30T19:09:08.305Z,16.97
2019-03-30T19:11:36.703Z,16.10
2019-03-30T19:14:05.116Z,25.10
2019-03-30T19:16:33.533Z,28.67
2019-03-30T19:19:01.941Z,10.77
2019-03-30T19:21:30.345Z,9.97
2019-03-30T19:23:58.780Z,11.80
2019-03-30T19:26:27.186Z,37.40
2019-03-30T19:28:56.862Z,44.93
2019-03-30T19:31:25.500Z,29.70
2019-03-30T19:33:53.924Z,12.83
2019-03-30T19:36:22.319Z,18.10
2019-03-30T19:38:50.759Z,24.13
2019-03-30T19:41:19.156Z,21.20
2019-03-30T19:43:47.562Z,79.77
2019-03-30T19:46:15.971Z,15.20
2019-03-30T19:48:44.422Z,16.13
2019-03-30T19:51:13.845Z,12.77
2019-03-30T19:53:42.261Z,27.37
2019-03-30T19:56:10.723Z,31.10
2019-03-30T19:58:39.133Z,18.23
2019-03-30T20:01:07.526Z,19.03
2019-03-30T20:03:35.965Z,25.13
2019-03-30T20:06:04.340Z,15.20
2019-03-30T20:08:32.754Z,12.27
2019-03-30T20:11:01.163Z,14.30
2019-03-30T20:13:29.598Z,19.17
2019-03-30T20:15:58.003Z,19.97
2019-03-30T20:18:26.412Z,16.17
2019-03-30T20:20:54.836Z,29.27
2019-03-30T20:23:23.230Z,36.20
2019-03-30T20:25:51.660Z,25.00
2019-03-30T20:28:20.126Z,24.60
2019-03-30T20:30:48.550Z,38.37
2019-03-30T20:33:16.945Z,32.20
2019-03-30T20:35:45.349Z,41.90
2019-03-30T20:38:13.773Z,47.70
2019-03-30T20:40:42.188Z,46.30
2019-03-30T20:43:10.595Z,44.80
2019-03-30T20:45:39.001Z,35.27
2019-03-30T20:48:07.412Z,24.93
2019-03-30T20:50:35.830Z,30.40
2019-03-30T20:53:04.299Z,27.30
2019-03-30T20:55:34.068Z,30.03
2019-03-30T20:58:03.551Z,23.53
2019-03-30T21:00:31.961Z,16.87
2019-03-30T21:03:00.378Z,16.70
2019-03-30T21:05:28.804Z,16.50
2019-03-30T21:07:57.214Z,21.23
2019-03-30T21:10:25.646Z,23.10
2019-03-30T21:12:55.029Z,17.40
2019-03-30T21:15:23.460Z,15.10
2019-03-30T21:17:51.862Z,16.53
2019-03-30T21:20:20.287Z,16.87
2019-03-30T21:22:48.685Z,19.50
2019-03-30T21:25:17.159Z,18.00
2019-03-30T21:27:45.574Z,20.33
2019-03-30T21:30:15.476Z,17.53
2019-03-30T21:32:43.875Z,15.43
2019-03-30T21:35:12.465Z,14.57
2019-03-30T21:37:40.878Z,17.90
2019-03-30T21:40:09.429Z,16.70
2019-03-30T21:42:37.823Z,15.13
2019-03-30T21:45:08.891Z,14.60
2019-03-30T21:47:37.345Z,13.87
2019-03-30T21:50:08.007Z,16.27
2019-03-30T21:52:36.413Z,14.30
2019-03-30T21:55:06.181Z,15.07
2019-03-30T21:57:34.570Z,16.07
2019-03-30T22:00:09.805Z,16.57
2019-03-30T22:02:33.479Z,16.80
2019-03-30T22:05:01.957Z,16.30
2019-03-30T22:07:30.700Z,16.27
2019-03-30T22:09:59.176Z,15.70
2019-03-30T22:12:27.574Z,14.37
2019-03-30T22:14:56.169Z,15.40
2019-03-30T22:17:24.571Z,16.17
2019-03-30T22:19:52.984Z,15.03
2019-03-30T22:22:21.377Z,16.27
2019-03-30T22:25:09.295Z,17.17
2019-03-30T22:27:37.681Z,18.00
2019-03-30T22:30:08.043Z,18.90
2019-03-30T22:32:36.431Z,16.90
2019-03-30T22:35:05.972Z,17.60
2019-03-30T22:37:34.370Z,17.63
2019-03-30T22:40:02.865Z,18.33
2019-03-30T22:42:31.274Z,17.00
2019-03-30T22:44:59.762Z,20.00
2019-03-30T22:47:28.150Z,20.60
2019-03-30T22:49:56.543Z,17.80
2019-03-30T22:52:25.010Z,15.80
2019-03-30T22:54:53.416Z,15.17
2019-03-30T22:57:21.818Z,14.57
2019-03-30T22:59:50.219Z,14.90
2019-03-30T23:02:18.644Z,17.77
2019-03-30T23:04:47.050Z,14.90
2019-03-30T23:07:16.426Z,14.77
2019-03-30T23:09:44.818Z,16.13
2019-03-30T23:12:13.234Z,15.90
2019-03-30T23:14:41.629Z,16.10
2019-03-30T23:17:10.026Z,15.90
2019-03-30T23:19:38.429Z,16.03
2019-03-30T23:22:06.834Z,15.30
2019-03-30T23:24:37.216Z,14.20
2019-03-30T23:27:05.617Z,14.70
2019-03-30T23:29:34.033Z,16.30
2019-03-30T23:32:02.447Z,13.87
2019-03-30T23:34:30.857Z,13.53
2019-03-30T23:36:59.317Z,13.60
2019-03-30T23:39:28.703Z,14.10
2019-03-30T23:41:57.124Z,15.23
2019-03-30T23:44:25.529Z,15.03
2019-03-30T23:46:53.934Z,15.67
2019-03-30T23:49:22.339Z,16.70
2019-03-30T23:51:50.767Z,14.60
2019-03-30T23:54:21.155Z,15.63
2019-03-30T23:56:49.557Z,15.67
2019-03-30T23:59:17.945Z,16.43
